Time;durP1;ratioP1;P1;durP2;ratioP2;P2;SDS_P1;SDS_P2;PMS_P1;PMS_P2;Temp;Humidity;BMP_temperature;BMP_pressure;BME280_temperature;BME280_humidity;BME280_pressure;Samples;Min_cycle;Max_cycle;Signal;HPM_P1;HPM_P2
2023/04/22 00:01:58;;;;;;;8.68;7.78;;;;;;;6.47;100.00;100749.97;5028441;28;20048;-60
2023/04/22 00:04:24;;;;;;;8.55;7.68;;;;;;;6.50;100.00;100752.28;5028759;28;20021;-59
2023/04/22 00:06:49;;;;;;;8.25;7.45;;;;;;;6.46;100.00;100746.41;5028925;28;20140;-60
2023/04/22 00:09:14;;;;;;;7.90;7.10;;;;;;;6.40;100.00;100746.41;5028664;28;20037;-59
2023/04/22 00:11:40;;;;;;;7.60;6.80;;;;;;;6.35;100.00;100744.28;5028962;28;20036;-60
2023/04/22 00:14:05;;;;;;;8.40;7.55;;;;;;;6.37;100.00;100747.63;5028650;28;20037;-60
2023/04/22 00:16:31;;;;;;;8.20;7.40;;;;;;;6.41;100.00;100743.44;5028732;28;20132;-60
2023/04/22 00:18:56;;;;;;;7.82;7.03;;;;;;;6.37;100.00;100735.88;5029143;28;20041;-59
2023/04/22 00:21:21;;;;;;;8.48;7.57;;;;;;;6.33;100.00;100732.72;5027771;28;20064;-60
2023/04/22 00:23:47;;;;;;;9.30;7.80;;;;;;;6.28;100.00;100727.03;5028668;28;20356;-58
2023/04/22 00:26:12;;;;;;;7.57;6.78;;;;;;;6.26;100.00;100741.94;5028822;28;20034;-58
2023/04/22 00:28:37;;;;;;;7.95;7.13;;;;;;;6.27;100.00;100736.28;5028620;28;20469;-58
2023/04/22 00:31:03;;;;;;;9.70;8.70;;;;;;;6.29;100.00;100739.66;5028297;28;20029;-60
2023/04/22 00:33:29;;;;;;;9.77;8.85;;;;;;;6.31;100.00;100736.72;5028859;28;20025;-60
2023/04/22 00:35:54;;;;;;;10.43;9.43;;;;;;;6.32;100.00;100736.50;5027670;28;20096;-60
2023/04/22 00:38:20;;;;;;;10.60;9.32;;;;;;;6.35;100.00;100740.72;5028649;28;20111;-59
2023/04/22 00:40:45;;;;;;;8.48;7.55;;;;;;;6.30;100.00;100751.41;5028052;28;20029;-59
2023/04/22 00:43:11;;;;;;;9.30;8.40;;;;;;;6.24;100.00;100745.72;5028573;28;20401;-57
2023/04/22 00:45:38;;;;;;;9.23;8.27;;;;;;;6.21;100.00;100742.56;5027962;28;20111;-60
2023/04/22 00:48:04;;;;;;;9.15;8.13;;;;;;;6.20;100.00;100740.88;5027831;28;20041;-58
2023/04/22 00:50:29;;;;;;;9.20;8.30;;;;;;;6.23;100.00;100744.03;5028022;28;20045;-60
2023/04/22 00:52:54;;;;;;;10.20;9.10;;;;;;;6.22;100.00;100742.34;5028040;28;20025;-60
2023/04/22 00:55:20;;;;;;;9.57;8.63;;;;;;;6.27;100.00;100740.88;5027529;28;20474;-56
2023/04/22 00:57:48;;;;;;;12.05;10.77;;;;;;;6.30;100.00;100748.66;5028275;28;20033;-59
2023/04/22 01:00:13;;;;;;;12.23;10.65;;;;;;;6.30;100.00;100740.50;5026314;28;20033;-57
2023/04/22 01:02:39;;;;;;;11.85;10.65;;;;;;;6.36;100.00;100740.50;5028540;28;20039;-59
2023/04/22 01:05:07;;;;;;;11.35;9.70;;;;;;;6.36;100.00;100740.50;5028871;28;20068;-56
2023/04/22 01:07:33;;;;;;;10.30;9.30;;;;;;;6.42;100.00;100742.41;5026203;28;20496;-59
2023/04/22 01:09:58;;;;;;;9.80;8.85;;;;;;;6.38;100.00;100740.28;5027374;28;20029;-57
2023/04/22 01:12:23;;;;;;;10.45;9.45;;;;;;;6.44;100.00;100736.75;5026831;28;20061;-60
2023/04/22 01:14:49;;;;;;;9.65;8.65;;;;;;;6.42;100.00;100736.09;5026018;28;20091;-60
2023/04/22 01:17:15;;;;;;;8.68;7.78;;;;;;;6.33;100.00;100735.44;5025432;28;20064;-60
2023/04/22 01:19:42;;;;;;;9.10;8.20;;;;;;;6.35;100.00;100729.81;5026229;28;20076;-56
2023/04/22 01:22:10;;;;;;;9.63;8.73;;;;;;;6.36;100.00;100728.75;5025800;28;20415;-60
2023/04/22 01:24:36;;;;;;;10.55;8.35;;;;;;;6.39;100.00;100731.06;5025420;28;20026;-57
2023/04/22 01:27:01;;;;;;;9.90;9.00;;;;;;;6.45;100.00;100727.53;5026870;28;20021;-60
2023/04/22 01:29:27;;;;;;;9.85;8.95;;;;;;;6.47;100.00;100730.88;5026665;28;20128;-58
2023/04/22 01:31:53;;;;;;;9.38;8.48;;;;;;;6.50;100.00;100717.66;5025669;28;20021;-58
2023/04/22 01:34:18;;;;;;;8.85;7.95;;;;;;;6.52;100.00;100725.63;5025567;28;20045;-60
2023/04/22 01:36:44;;;;;;;8.63;7.70;;;;;;;6.57;100.00;100725.00;5027514;28;20026;-59
2023/04/22 01:39:09;;;;;;;9.27;8.38;;;;;;;6.60;100.00;100725.44;5017376;28;20160;-55
2023/04/22 01:41:35;;;;;;;8.63;7.72;;;;;;;6.71;100.00;100722.09;5005462;28;20026;-59
2023/04/22 01:44:02;;;;;;;9.45;8.50;;;;;;;6.75;100.00;100719.81;5005828;28;20033;-59
2023/04/22 01:46:28;;;;;;;9.57;8.68;;;;;;;6.83;100.00;100718.75;5005976;28;20033;-59
2023/04/22 01:48:53;;;;;;;9.13;8.23;;;;;;;6.85;100.00;100722.13;4989328;28;20034;-60
2023/04/22 01:51:25;;;;;;;9.43;8.52;;;;;;;6.91;100.00;100722.09;5004708;28;20172;-60
2023/04/22 01:53:50;;;;;;;8.95;7.88;;;;;;;6.93;100.00;100713.69;5006722;28;20030;-59
2023/04/22 01:56:16;;;;;;;8.50;7.70;;;;;;;6.95;100.00;100714.34;5006986;28;20473;-58
2023/04/22 01:58:42;;;;;;;9.27;8.30;;;;;;;6.95;100.00;100712.44;5005970;28;20624;-59
2023/04/22 02:01:09;;;;;;;8.98;8.07;;;;;;;6.98;100.00;100708.44;5005752;28;20026;-60
2023/04/22 02:03:34;;;;;;;8.85;7.97;;;;;;;6.99;100.00;100712.84;5007656;28;20079;-55
2023/04/22 02:06:00;;;;;;;8.63;7.82;;;;;;;6.99;100.00;100711.00;5006082;28;20026;-60
2023/04/22 02:08:25;;;;;;;8.38;7.55;;;;;;;7.00;100.00;100709.94;5007085;28;20026;-59
2023/04/22 02:10:50;;;;;;;8.77;7.88;;;;;;;7.01;100.00;100708.88;5006169;28;20440;-60
2023/04/22 02:13:16;;;;;;;8.80;7.50;;;;;;;7.00;100.00;100709.09;5004545;28;20026;-58
2023/04/22 02:15:41;;;;;;;8.20;7.40;;;;;;;7.03;100.00;100705.94;5006477;28;20021;-59
2023/04/22 02:18:07;;;;;;;8.48;7.57;;;;;;;7.03;100.00;100705.94;5004361;28;20477;-60
2023/04/22 02:20:32;;;;;;;8.65;7.75;;;;;;;7.04;100.00;100702.13;5005559;28;20116;-59
2023/04/22 02:22:58;;;;;;;8.32;7.53;;;;;;;7.05;100.00;100701.13;5005575;28;20041;-58
2023/04/22 02:25:23;;;;;;;8.27;7.47;;;;;;;7.05;100.00;100711.19;5006365;28;20033;-59
2023/04/22 02:27:49;;;;;;;8.40;7.50;;;;;;;7.04;100.00;100704.88;5005494;28;20029;-59
2023/04/22 02:30:14;;;;;;;8.38;7.57;;;;;;;7.06;100.00;100699.22;5005800;28;20065;-59
2023/04/22 02:32:40;;;;;;;8.43;7.60;;;;;;;7.06;100.00;100691.84;4989301;28;20033;-60
2023/04/22 02:35:05;;;;;;;8.75;7.90;;;;;;;7.07;100.00;100696.25;5006030;28;20033;-60
2023/04/22 02:37:31;;;;;;;8.68;7.80;;;;;;;7.04;100.00;100696.69;5005253;28;20069;-60
2023/04/22 02:39:56;;;;;;;9.23;8.32;;;;;;;7.07;100.00;100693.53;5020922;28;20118;-56
2023/04/22 02:42:21;;;;;;;9.10;8.20;;;;;;;7.06;100.00;100697.31;5024054;28;20040;-60
2023/04/22 02:44:47;;;;;;;8.55;7.75;;;;;;;7.10;100.00;100687.66;5024995;28;20498;-60
2023/04/22 02:47:12;;;;;;;8.77;7.88;;;;;;;7.08;100.00;100694.38;5024802;28;20029;-57
2023/04/22 02:49:37;;;;;;;8.30;7.47;;;;;;;7.07;100.00;100688.06;5025023;28;20033;-57
2023/04/22 02:52:03;;;;;;;9.00;8.18;;;;;;;7.04;100.00;100693.94;5025258;28;20029;-59
2023/04/22 02:54:28;;;;;;;9.10;8.20;;;;;;;7.06;100.00;100685.56;5025216;28;20044;-59
2023/04/22 02:56:54;;;;;;;9.50;8.60;;;;;;;7.03;100.00;100675.88;5025579;28;20025;-59
2023/04/22 02:59:19;;;;;;;9.85;8.95;;;;;;;7.02;100.00;100680.50;5023749;28;20044;-60
2023/04/22 03:01:44;;;;;;;9.43;8.52;;;;;;;7.01;100.00;100680.72;5024915;28;20463;-60
2023/04/22 03:04:11;;;;;;;9.02;8.23;;;;;;;6.99;100.00;100678.22;5024858;28;20040;-58
2023/04/22 03:06:36;;;;;;;9.32;8.43;;;;;;;7.00;100.00;100676.34;5024554;28;20025;-60
2023/04/22 03:09:01;;;;;;;9.25;8.43;;;;;;;7.00;100.00;100671.72;5024123;28;22001;-60
2023/04/22 03:11:27;;;;;;;9.50;8.60;;;;;;;7.02;100.00;100669.59;5025587;28;20084;-60
2023/04/22 03:13:52;;;;;;;9.73;8.82;;;;;;;7.00;100.00;100668.13;5024778;28;20382;-58
2023/04/22 03:16:17;;;;;;;8.82;7.60;;;;;;;6.96;100.00;100669.59;5025021;28;20176;-59
2023/04/22 03:18:42;;;;;;;8.38;7.57;;;;;;;6.95;100.00;100676.13;5024835;28;20033;-58
2023/04/22 03:21:08;;;;;;;8.15;7.35;;;;;;;6.96;100.00;100672.34;5023848;28;20032;-58
2023/04/22 03:23:33;;;;;;;9.18;8.27;;;;;;;6.96;100.00;100672.34;5024377;28;20453;-60
2023/04/22 03:25:58;;;;;;;7.95;7.15;;;;;;;6.96;100.00;100675.06;5025776;28;20025;-60
2023/04/22 03:28:24;;;;;;;8.30;7.35;;;;;;;6.93;100.00;100670.84;5023483;28;20858;-60
2023/04/22 03:30:49;;;;;;;8.50;7.70;;;;;;;6.93;100.00;100664.56;5027445;28;20044;-60
2023/04/22 03:33:15;;;;;;;8.48;7.63;;;;;;;6.90;100.00;100665.84;5028537;28;20248;-60
2023/04/22 03:35:40;;;;;;;8.30;7.50;;;;;;;6.89;100.00;100666.03;5029122;28;20045;-60
2023/04/22 03:38:06;;;;;;;8.35;7.55;;;;;;;6.88;100.00;100656.16;5018978;28;20030;-59
2023/04/22 03:40:31;;;;;;;9.23;8.32;;;;;;;6.84;100.00;100650.28;5028999;28;20080;-60
2023/04/22 03:42:57;;;;;;;9.95;9.05;;;;;;;6.84;100.00;100655.72;5028684;28;20030;-60
2023/04/22 03:45:22;;;;;;;9.30;8.32;;;;;;;6.82;100.00;100652.38;5028167;28;20039;-58
2023/04/22 03:47:47;;;;;;;9.32;8.43;;;;;;;6.81;100.00;100655.34;5027815;28;20164;-60
2023/04/22 03:50:13;;;;;;;10.18;9.25;;;;;;;6.74;100.00;100650.72;5028671;28;20025;-60
2023/04/22 03:52:38;;;;;;;10.32;9.32;;;;;;;6.73;100.00;100648.19;5027702;28;20556;-60
2023/04/22 03:55:03;;;;;;;10.32;9.35;;;;;;;6.74;100.00;100644.41;5028353;28;20037;-59
2023/04/22 03:57:29;;;;;;;9.55;8.65;;;;;;;6.72;100.00;100641.06;5028691;28;20029;-58
2023/04/22 03:59:54;;;;;;;9.55;8.65;;;;;;;6.71;100.00;100628.47;5027855;28;20041;-58
2023/04/22 04:02:19;;;;;;;9.57;8.68;;;;;;;6.71;100.00;100637.50;5028502;28;20506;-58
2023/04/22 04:04:45;;;;;;;9.15;8.25;;;;;;;6.70;100.00;100634.97;5028613;28;20435;-60
2023/04/22 04:07:10;;;;;;;8.70;7.90;;;;;;;6.69;100.00;100641.47;5028242;28;20032;-59
2023/04/22 04:09:35;;;;;;;9.68;8.77;;;;;;;6.68;100.00;100635.16;5028856;28;20558;-60
2023/04/22 04:12:01;;;;;;;8.82;7.93;;;;;;;6.68;100.00;100628.88;5026505;28;20795;-60
2023/04/22 04:14:27;;;;;;;9.05;8.15;;;;;;;6.67;100.00;100622.56;5027887;28;20579;-59
2023/04/22 04:16:52;;;;;;;9.60;8.65;;;;;;;6.69;100.00;100627.81;5027795;28;20029;-59
2023/04/22 04:19:17;;;;;;;9.02;8.18;;;;;;;6.67;100.00;100628.03;5026991;28;20091;-60
2023/04/22 04:21:42;;;;;;;9.63;8.63;;;;;;;6.69;100.00;100625.09;5026590;28;20029;-56
2023/04/22 04:24:08;;;;;;;9.10;8.30;;;;;;;6.68;100.00;100628.88;5028239;28;20021;-58
2023/04/22 04:26:33;;;;;;;9.40;8.50;;;;;;;6.66;100.00;100631.81;5027790;28;20029;-59
2023/04/22 04:29:00;;;;;;;9.27;8.38;;;;;;;6.65;100.00;100621.97;5024720;28;20033;-60
2023/04/22 04:31:26;;;;;;;9.85;8.70;;;;;;;6.62;100.00;100630.56;5026472;28;20087;-60
2023/04/22 04:33:51;;;;;;;9.60;8.60;;;;;;;6.61;100.00;100634.34;5027564;28;20021;-60
2023/04/22 04:36:17;;;;;;;9.00;8.10;;;;;;;6.63;100.00;100615.84;5025903;28;20607;-60
2023/04/22 04:38:43;;;;;;;9.25;8.35;;;;;;;6.62;100.00;100611.47;5028017;28;20045;-60
2023/04/22 04:41:08;;;;;;;9.18;8.27;;;;;;;6.59;100.00;100620.09;5027349;28;20033;-56
2023/04/22 04:43:34;;;;;;;7.80;7.00;;;;;;;6.59;100.00;100620.09;5025408;28;20537;-58
2023/04/22 04:45:59;;;;;;;8.43;7.20;;;;;;;6.56;100.00;100620.50;5028726;28;20089;-58
2023/04/22 04:48:25;;;;;;;8.40;7.57;;;;;;;6.52;100.00;100624.69;5027622;28;20107;-59
2023/04/22 04:50:53;;;;;;;8.50;7.70;;;;;;;6.51;100.00;100623.00;5026868;28;20037;-58
2023/04/22 04:53:20;;;;;;;8.70;7.78;;;;;;;6.52;100.00;100624.69;5027329;28;20034;-58
2023/04/22 04:55:45;;;;;;;7.90;6.93;;;;;;;6.55;100.00;100631.63;5027508;28;20091;-58
2023/04/22 04:58:10;;;;;;;10.73;9.73;;;;;;;6.60;100.00;100620.91;5026161;28;20456;-59
2023/04/22 05:00:36;;;;;;;9.63;8.73;;;;;;;6.67;100.00;100622.56;5025324;28;20029;-59
2023/04/22 05:03:01;;;;;;;10.13;9.13;;;;;;;6.70;100.00;100622.16;5026228;28;20029;-60
2023/04/22 05:05:27;;;;;;;9.05;8.15;;;;;;;6.75;100.00;100625.09;5026896;28;20369;-58
2023/04/22 05:07:52;;;;;;;9.90;9.00;;;;;;;6.82;100.00;100618.78;5026269;28;20109;-59
2023/04/22 05:10:18;;;;;;;10.57;9.57;;;;;;;6.84;100.00;100622.13;5026462;28;20595;-59
2023/04/22 05:12:45;;;;;;;10.15;9.23;;;;;;;6.84;100.00;100625.72;5025832;28;20021;-57
2023/04/22 05:15:10;;;;;;;10.40;9.50;;;;;;;6.86;100.00;100634.53;5026652;28;20026;-59
2023/04/22 05:17:35;;;;;;;10.20;9.20;;;;;;;6.90;100.00;100637.69;5023293;28;20448;-56
2023/04/22 05:20:01;;;;;;;10.52;9.52;;;;;;;6.91;100.00;100636.63;5026811;28;20451;-59
2023/04/22 05:22:27;;;;;;;10.50;9.50;;;;;;;6.95;100.00;100624.25;5025090;28;20140;-59
2023/04/22 05:24:52;;;;;;;10.93;9.82;;;;;;;7.01;100.00;100617.94;5026372;28;20167;-59
2023/04/22 05:27:17;;;;;;;10.65;9.55;;;;;;;7.02;100.00;100619.59;5026440;28;20056;-60
2023/04/22 05:29:42;;;;;;;11.50;10.40;;;;;;;7.09;100.00;100614.94;5026366;28;20482;-59
2023/04/22 05:32:08;;;;;;;10.77;9.85;;;;;;;7.14;100.00;100626.06;5027596;28;20033;-60
2023/04/22 05:34:34;;;;;;;11.65;10.55;;;;;;;7.18;100.00;100629.22;5027067;28;20065;-60
2023/04/22 05:37:01;;;;;;;10.75;9.77;;;;;;;7.25;100.00;100619.97;5027939;28;20017;-60
2023/04/22 05:39:26;;;;;;;10.35;9.45;;;;;;;7.35;100.00;100625.00;5027203;28;20480;-59
2023/04/22 05:41:53;;;;;;;11.25;10.25;;;;;;;7.43;100.00;100622.00;5027439;28;20056;-59
2023/04/22 05:44:18;;;;;;;11.63;10.52;;;;;;;7.49;100.00;100618.41;5026192;28;20109;-59
2023/04/22 05:46:44;;;;;;;12.93;11.80;;;;;;;7.58;100.00;100619.00;5027201;28;20022;-59
2023/04/22 05:49:09;;;;;;;12.50;11.40;;;;;;;7.62;100.00;100617.53;5026999;28;20036;-60
2023/04/22 05:51:34;;;;;;;12.02;11.00;;;;;;;7.69;100.00;100621.06;5025361;28;20532;-60
2023/04/22 05:54:00;;;;;;;12.25;11.15;;;;;;;7.82;100.00;100627.53;5026557;28;20049;-58
2023/04/22 05:56:25;;;;;;;13.48;12.30;;;;;;;7.88;100.00;100623.91;5027678;28;20029;-60
2023/04/22 05:58:50;;;;;;;12.32;11.23;;;;;;;7.91;100.00;100613.41;5026381;28;20029;-60
2023/04/22 06:01:15;;;;;;;13.85;12.68;;;;;;;7.93;100.00;100611.25;5025279;28;20044;-60
2023/04/22 06:03:41;;;;;;;13.52;12.32;;;;;;;7.96;100.00;100619.03;5026832;28;20658;-60
2023/04/22 06:06:07;;;;;;;12.95;11.75;;;;;;;8.03;100.00;100608.88;5025466;28;20087;-57
2023/04/22 06:08:32;;;;;;;13.38;12.27;;;;;;;8.10;100.00;100606.09;5025581;28;20033;-60
2023/04/22 06:10:57;;;;;;;14.38;13.02;;;;;;;8.12;100.00;100605.91;5026006;28;20025;-59
2023/04/22 06:13:22;;;;;;;13.85;12.60;;;;;;;8.17;100.00;100609.66;5024916;28;20037;-59
2023/04/22 06:15:48;;;;;;;15.38;13.98;;;;;;;8.22;100.00;100609.00;5025797;28;20018;-59
2023/04/22 06:18:13;;;;;;;16.50;15.05;;;;;;;8.31;100.00;100607.63;5024715;28;20116;-59
2023/04/22 06:20:39;;;;;;;16.80;15.23;;;;;;;8.46;100.00;100599.13;5025773;28;20040;-59
2023/04/22 06:23:04;;;;;;;16.10;14.60;;;;;;;8.56;100.00;100596.75;5026302;28;20136;-60
2023/04/22 06:25:30;;;;;;;16.60;15.18;;;;;;;8.63;100.00;100597.53;5025516;28;20026;-60
2023/04/22 06:27:57;;;;;;;16.50;15.00;;;;;;;8.77;100.00;100606.47;5025568;28;20467;-60
2023/04/22 06:30:23;;;;;;;16.48;15.07;;;;;;;8.86;100.00;100598.78;5025872;28;20407;-58
2023/04/22 06:32:48;;;;;;;16.63;15.05;;;;;;;9.02;100.00;100585.38;5025081;28;20017;-60
2023/04/22 06:35:13;;;;;;;16.33;14.93;;;;;;;9.15;100.00;100587.13;5026424;28;20038;-60
2023/04/22 06:37:39;;;;;;;17.05;15.65;;;;;;;9.34;100.00;100583.31;5024995;28;20075;-60
2023/04/22 06:40:04;;;;;;;15.50;14.20;;;;;;;9.53;100.00;100588.75;5022903;28;20685;-59
2023/04/22 06:42:30;;;;;;;16.02;14.73;;;;;;;9.68;100.00;100591.97;5005912;28;20033;-59
2023/04/22 06:44:55;;;;;;;15.80;14.38;;;;;;;9.88;100.00;100592.53;5014688;28;20038;-60
2023/04/22 06:47:20;;;;;;;15.48;14.15;;;;;;;10.12;100.00;100592.59;5006225;28;20026;-59
2023/04/22 06:49:46;;;;;;;16.05;14.65;;;;;;;10.42;100.00;100591.75;5005640;28;20438;-58
2023/04/22 06:52:11;;;;;;;15.32;13.85;;;;;;;10.68;100.00;100579.47;5015601;28;20076;-59
2023/04/22 06:54:37;;;;;;;15.18;13.85;;;;;;;10.93;100.00;100573.75;5006121;28;20030;-56
2023/04/22 06:57:02;;;;;;;14.65;13.35;;;;;;;11.24;100.00;100576.09;5016535;28;20405;-58
2023/04/22 06:59:28;;;;;;;12.52;11.32;;;;;;;11.43;100.00;100571.28;5012920;28;20065;-59
2023/04/22 07:01:53;;;;;;;12.20;11.10;;;;;;;11.52;100.00;100572.56;5006291;28;20229;-60
2023/04/22 07:04:18;;;;;;;11.70;10.60;;;;;;;11.75;100.00;100568.06;5004187;28;20029;-59
2023/04/22 07:06:43;;;;;;;11.10;10.10;;;;;;;12.12;100.00;100585.06;5005290;28;20067;-58
2023/04/22 07:09:09;;;;;;;10.20;9.27;;;;;;;12.67;100.00;100587.09;5008828;28;20029;-60
2023/04/22 07:11:34;;;;;;;10.48;9.38;;;;;;;13.54;100.00;100575.41;5012091;28;20506;-58
2023/04/22 07:14:00;;;;;;;10.57;9.52;;;;;;;14.25;96.41;100572.59;5005111;28;20534;-60
2023/04/22 07:16:25;;;;;;;9.63;8.73;;;;;;;15.12;93.01;100567.75;5007268;28;20522;-59
2023/04/22 07:18:50;;;;;;;8.82;7.95;;;;;;;15.31;84.92;100567.03;5006456;28;20084;-59
2023/04/22 07:21:16;;;;;;;8.82;7.90;;;;;;;14.86;86.77;100566.78;5004730;28;20116;-60
2023/04/22 07:23:41;;;;;;;9.32;8.43;;;;;;;14.23;88.61;100572.84;5015355;28;20197;-60
2023/04/22 07:26:06;;;;;;;9.48;8.57;;;;;;;13.78;92.79;100562.16;5006027;28;20061;-59
2023/04/22 07:28:31;;;;;;;9.18;8.27;;;;;;;13.41;93.57;100562.00;5013479;28;20018;-59
2023/04/22 07:30:57;;;;;;;9.95;8.95;;;;;;;13.18;98.41;100565.81;5005869;28;20045;-59
2023/04/22 07:33:22;;;;;;;9.90;8.90;;;;;;;13.20;95.99;100564.47;5009453;28;20025;-60
2023/04/22 07:35:47;;;;;;;11.07;10.07;;;;;;;13.38;96.52;100571.63;5009803;28;20534;-58
2023/04/22 07:38:13;;;;;;;10.45;9.48;;;;;;;13.64;96.69;100578.31;5006835;28;20030;-58
2023/04/22 07:40:38;;;;;;;11.38;10.30;;;;;;;13.75;93.25;100570.97;5023888;28;20041;-58
2023/04/22 07:43:04;;;;;;;10.57;9.68;;;;;;;13.90;91.92;100565.63;5024847;28;20045;-59
2023/04/22 07:45:30;;;;;;;10.93;9.93;;;;;;;14.11;90.75;100571.34;5024982;28;20026;-60
2023/04/22 07:47:55;;;;;;;9.70;8.80;;;;;;;14.60;88.77;100571.25;5024682;28;20034;-59
2023/04/22 07:50:21;;;;;;;10.23;8.90;;;;;;;15.59;86.03;100570.47;5025301;28;20036;-60
2023/04/22 07:52:46;;;;;;;10.00;9.10;;;;;;;15.80;81.40;100575.00;5023672;28;20032;-57
2023/04/22 07:55:11;;;;;;;9.93;9.02;;;;;;;15.87;82.56;100573.94;5025240;28;20526;-60
2023/04/22 07:57:37;;;;;;;10.80;9.80;;;;;;;15.72;82.21;100560.88;5024081;28;20033;-60
2023/04/22 08:00:07;;;;;;;10.43;9.43;;;;;;;15.47;84.45;100554.09;5023350;28;20029;-60
2023/04/22 08:02:33;;;;;;;10.45;9.45;;;;;;;15.37;85.27;100543.00;5025328;28;20073;-59
2023/04/22 08:04:58;;;;;;;9.98;9.07;;;;;;;15.28;84.59;100544.59;5024766;28;20191;-58
2023/04/22 08:07:24;;;;;;;10.00;9.00;;;;;;;15.43;84.99;100544.69;5023681;28;20030;-60
2023/04/22 08:09:49;;;;;;;9.93;9.02;;;;;;;15.41;85.39;100541.34;5025438;28;20045;-60
2023/04/22 08:12:14;;;;;;;10.45;9.40;;;;;;;15.26;87.75;100536.59;5023826;28;20044;-60
2023/04/22 08:14:40;;;;;;;11.20;10.20;;;;;;;15.31;88.00;100533.00;5023782;28;20029;-59
2023/04/22 08:17:05;;;;;;;10.40;9.40;;;;;;;15.60;88.57;100524.25;5026524;28;20071;-58
2023/04/22 08:19:30;;;;;;;9.52;8.63;;;;;;;15.71;87.01;100520.44;5027795;28;20028;-59
2023/04/22 08:21:56;;;;;;;9.13;8.23;;;;;;;15.83;84.38;100523.81;5028776;28;20060;-60
2023/04/22 08:24:22;;;;;;;9.27;8.38;;;;;;;15.85;83.15;100521.56;5027002;28;20035;-60
2023/04/22 08:26:47;;;;;;;9.30;8.40;;;;;;;15.99;82.65;100527.44;5028130;28;20480;-60
2023/04/22 08:29:12;;;;;;;9.82;8.82;;;;;;;16.17;83.47;100526.03;5027892;28;20033;-58
2023/04/22 08:31:38;;;;;;;9.90;9.00;;;;;;;16.27;83.12;100523.28;5028292;28;20532;-59
2023/04/22 08:34:03;;;;;;;10.07;9.07;;;;;;;16.27;81.06;100526.91;5028217;28;20025;-59
2023/04/22 08:36:29;;;;;;;9.52;8.63;;;;;;;16.34;84.46;100527.47;5027090;28;20037;-59
2023/04/22 08:38:55;;;;;;;8.18;7.25;;;;;;;16.16;81.10;100525.22;5027848;28;20133;-59
2023/04/22 08:41:23;;;;;;;8.48;7.68;;;;;;;15.95;79.63;100529.06;5027651;28;20459;-59
2023/04/22 08:43:48;;;;;;;;;;;;;;;16.13;84.18;100519.41;5027219;28;20026;-60
2023/04/22 08:46:18;;;;;;;8.27;7.47;;;;;;;16.25;82.10;100514.44;5027849;28;19909;-60
2023/04/22 08:48:46;;;;;;;8.50;7.57;;;;;;;16.61;81.43;100513.28;5028153;28;20033;-60
2023/04/22 08:51:12;;;;;;;9.55;8.65;;;;;;;16.78;81.15;100499.19;5027644;28;20079;-60
2023/04/22 08:53:38;;;;;;;9.00;8.05;;;;;;;17.10;78.62;100487.69;5028000;28;20038;-60
2023/04/22 08:56:04;;;;;;;9.05;8.15;;;;;;;17.56;75.68;100479.16;5028286;28;20439;-60
2023/04/22 08:58:31;;;;;;;9.30;7.90;;;;;;;17.99;72.47;100476.69;5026063;28;20236;-59
2023/04/22 09:00:56;;;;;;;8.95;8.05;;;;;;;18.19;72.37;100480.44;5028271;28;20611;-60
2023/04/22 09:03:22;;;;;;;8.20;7.40;;;;;;;19.21;67.96;100465.50;5027596;28;20020;-60
2023/04/22 09:05:50;;;;;;;8.25;7.13;;;;;;;20.37;63.80;100479.66;5025763;28;20120;-59
2023/04/22 09:08:16;;;;;;;8.05;6.78;;;;;;;20.71;60.89;100472.97;5028240;28;20034;-60
2023/04/22 09:10:41;;;;;;;6.95;6.25;;;;;;;21.28;57.98;100479.09;5026760;28;20026;-59
2023/04/22 09:13:06;;;;;;;7.10;6.20;;;;;;;21.75;58.35;100474.22;5025373;28;20446;-60
2023/04/22 09:15:33;;;;;;;6.90;6.13;;;;;;;21.77;55.45;100469.94;5027659;28;20029;-59
2023/04/22 09:17:58;;;;;;;6.40;5.70;;;;;;;22.10;56.32;100464.16;5026646;28;20087;-59
2023/04/22 09:20:28;;;;;;;7.20;6.50;;;;;;;22.09;57.59;100468.06;5026284;28;20033;-59
2023/04/22 09:22:55;;;;;;;6.90;5.57;;;;;;;21.67;54.96;100461.78;5026438;28;20025;-60
2023/04/22 09:25:26;;;;;;;6.90;5.57;;;;;;;21.30;58.28;100471.28;5025968;28;20026;-60
2023/04/22 09:27:54;;;;;;;7.18;5.72;;;;;;;21.46;55.31;100463.38;5026683;28;20034;-58
2023/04/22 09:30:30;;;;;;;6.38;5.47;;;;;;;21.79;55.79;100468.78;5026556;28;20108;-59
2023/04/22 09:32:59;;;;;;;5.78;4.70;;;;;;;21.56;54.06;100468.75;5025825;28;20041;-61
2023/04/22 09:35:29;;;;;;;6.38;5.22;;;;;;;21.99;54.85;100457.94;5027450;28;20067;-60
2023/04/22 09:37:56;;;;;;;6.88;4.88;;;;;;;22.68;54.62;100463.22;5026118;28;20032;-59
2023/04/22 09:40:22;;;;;;;5.63;4.97;;;;;;;23.40;51.37;100455.59;5011058;28;20493;-60
2023/04/22 09:42:49;;;;;;;4.88;4.28;;;;;;;23.64;48.54;100458.81;5007074;28;20049;-60
2023/04/22 09:45:30;;;;;;;5.80;4.15;;;;;;;24.77;50.01;100459.53;5016224;28;20026;-60
2023/04/22 09:47:59;;;;;;;5.47;4.03;;;;;;;25.18;43.77;100451.63;5007513;28;20034;-60
2023/04/22 09:50:27;;;;;;;5.90;4.13;;;;;;;25.93;42.24;100457.44;5020953;28;20029;-59
2023/04/22 09:52:57;;;;;;;5.78;4.05;;;;;;;26.71;41.33;100468.78;5006964;28;20030;-60
2023/04/22 09:55:25;;;;;;;4.68;3.72;;;;;;;26.78;38.95;100459.78;5012537;28;20030;-61
2023/04/22 09:57:53;;;;;;;5.32;3.78;;;;;;;26.64;39.31;100468.53;5015425;28;20022;-61
2023/04/22 10:00:19;;;;;;;5.03;3.85;;;;;;;26.02;41.05;100464.66;5015342;28;20034;-61
2023/04/22 10:02:44;;;;;;;5.40;3.90;;;;;;;25.45;40.07;100461.56;5016522;28;20104;-59
2023/04/22 10:05:11;;;;;;;4.40;3.95;;;;;;;26.09;40.93;100464.09;5016799;28;20120;-61
2023/04/22 10:07:41;;;;;;;6.75;4.28;;;;;;;26.56;38.48;100461.00;5015062;28;20088;-62
2023/04/22 10:10:07;;;;;;;5.78;4.05;;;;;;;26.53;38.41;100461.72;5015222;28;20022;-60
2023/04/22 10:12:36;;;;;;;5.00;3.78;;;;;;;26.40;38.87;100458.81;5012082;28;20461;-61
2023/04/22 10:15:06;;;;;;;4.95;3.92;;;;;;;25.90;39.22;100458.13;4987794;28;20033;-61
2023/04/22 10:17:34;;;;;;;5.53;4.05;;;;;;;24.25;42.21;100470.84;5006919;28;20033;-60
2023/04/22 10:20:03;;;;;;;5.97;3.92;;;;;;;22.51;45.78;100466.75;5012282;28;20030;-60
2023/04/22 10:22:30;;;;;;;6.97;4.28;;;;;;;22.02;50.29;100456.50;5009946;28;20037;-61
2023/04/22 10:24:57;;;;;;;5.78;4.57;;;;;;;23.17;48.43;100464.13;5007116;28;20065;-61
2023/04/22 10:27:22;;;;;;;5.90;4.32;;;;;;;23.95;45.29;100469.06;5005915;28;20022;-61
2023/04/22 10:29:48;;;;;;;5.65;4.38;;;;;;;24.12;44.03;100476.63;5006821;28;20407;-61
2023/04/22 10:32:16;;;;;;;4.50;4.03;;;;;;;23.32;47.18;100479.66;5006537;28;20026;-60
2023/04/22 10:34:42;;;;;;;6.05;4.60;;;;;;;22.26;48.55;100478.59;5007072;28;20739;-61
2023/04/22 10:37:11;;;;;;;5.55;4.03;;;;;;;21.29;50.28;100480.78;5006603;28;20026;-60
2023/04/22 10:39:38;;;;;;;5.85;4.80;;;;;;;20.91;52.50;100480.13;5018223;28;20127;-61
2023/04/22 10:42:15;;;;;;;6.35;4.93;;;;;;;20.91;52.47;100468.97;5024850;28;20026;-61
2023/04/22 10:44:49;;;;;;;5.63;4.57;;;;;;;21.20;52.87;100475.06;5025423;28;20178;-62
2023/04/22 10:47:32;;;;;;;6.53;4.28;;;;;;;20.98;53.84;100466.56;5024109;28;20033;-62
2023/04/22 10:50:30;;;;;;;6.25;4.35;;;;;;;20.90;54.83;100458.94;5025518;28;20030;-61
2023/04/22 10:53:19;;;;;;;6.10;4.60;;;;;;;20.60;53.97;100455.59;5013267;28;20447;-61
2023/04/22 10:55:51;;;;;;;6.50;4.50;;;;;;;20.04;55.29;100450.97;5025232;28;20506;-61
2023/04/22 10:58:19;;;;;;;5.82;3.60;;;;;;;19.57;55.22;100449.16;5025179;28;20354;-61
2023/04/22 11:00:44;;;;;;;6.87;3.97;;;;;;;19.16;57.50;100460.84;5026130;28;20048;-61
2023/04/22 11:03:11;;;;;;;7.03;4.00;;;;;;;18.78;58.50;100459.88;5025965;28;20290;-57
2023/04/22 11:05:38;;;;;;;6.85;4.13;;;;;;;18.44;59.78;100466.31;5026140;28;20029;-61
2023/04/22 11:08:07;;;;;;;6.15;3.72;;;;;;;18.09;61.60;100468.25;5024513;28;20068;-60
2023/04/22 11:10:44;;;;;;;5.95;4.45;;;;;;;17.90;61.97;100470.09;5025566;28;20056;-61
2023/04/22 11:13:18;;;;;;;5.33;4.23;;;;;;;17.64;65.65;100473.03;5025109;28;20036;-60
2023/04/22 11:15:46;;;;;;;6.88;4.10;;;;;;;17.51;65.88;100472.81;5025866;28;20025;-61
2023/04/22 11:18:25;;;;;;;;;;;;;;;17.68;64.17;100466.88;5025967;28;20453;-59